Terminal Aerodrome Forecast
Issued by NWS

Home | Current Version | Previous Version | Text Only | Print | Product List | Glossary On
Versions: 1 2 3 4 5 6 7 8 9 10 11 12 13 14 15
070
FTUS45 KVEF 222339
TAFDAG
TAF
KDAG 222339Z 2300/2324 11011KT P6SM -RA SCT030 OVC050
      TEMPO 2300/2303 6SM -RA BKN050
     FM230300 22015G25KT P6SM -RA SCT030 BKN060
     FM230800 24024G34KT P6SM -RA SCT030 BKN080
     FM231200 25022G32KT P6SM SCT050 BKN080=

USA.gov is the U.S. government's official web portal to all federal, state and local government web resources and services.